Time,TemperatureF,DewpointF,PressureIn,WindDirection,WindDirectionDegrees,WindSpeedMPH,WindSpeedGustMPH,Humidity,HourlyPrecipIn,Conditions,Clouds,dailyrainin,SolarRadiationWatts/m^2,SoftwareType,DateUTC
2013-01-07 00:01:00,31.6,25.8,29.02,ENE,72,11.5,11.5,79,0.00,BKN,,0.00,0.0,WeatherDisplay:10.37,2013-01-07 09:01:00,
2013-01-07 00:06:00,31.6,25.8,29.02,East,80,9.2,9.2,79,0.00,BKN,,0.00,0.0,WeatherDisplay:10.37,2013-01-07 09:06:00,
2013-01-07 00:11:00,31.5,25.7,29.02,NE,44,6.9,6.9,79,0.00,BKN,,0.00,0.0,WeatherDisplay:10.37,2013-01-07 09:11:00,
2013-01-07 00:16:00,31.5,26.0,29.02,East,101,8.1,8.1,80,0.00,BKN,,0.00,0.0,WeatherDisplay:10.37,2013-01-07 09:16:00,
2013-01-07 00:21:00,31.4,25.9,29.02,East,90,9.2,9.2,80,0.00,BKN,,0.00,0.0,WeatherDisplay:10.37,2013-01-07 09:21:00,
2013-01-07 00:26:00,31.4,25.9,29.03,NE,55,8.1,8.1,80,0.00,BKN,,0.00,0.0,WeatherDisplay:10.37,2013-01-07 09:26:00,
2013-01-07 00:31:00,31.3,25.8,29.02,NE,51,6.9,6.9,80,0.00,BKN,,0.00,0.0,WeatherDisplay:10.37,2013-01-07 09:31:00,
2013-01-07 00:36:00,31.2,26.0,29.03,NE,44,8.1,8.1,81,0.00,BKN,,0.00,0.0,WeatherDisplay:10.37,2013-01-07 09:36:00,
2013-01-07 00:41:00,31.1,26.0,29.02,East,90,9.2,9.2,81,0.00,BKN,,0.00,0.0,WeatherDisplay:10.37,2013-01-07 09:41:00,
2013-01-07 00:46:00,31.1,26.2,29.02,East,85,9.0,9.0,82,0.00,BKN,,0.00,0.0,WeatherDisplay:10.37,2013-01-07 09:46:00,
2013-01-07 00:51:00,31.1,26.5,29.01,East,87,9.2,9.2,83,0.00,BKN,,0.00,0.0,WeatherDisplay:10.37,2013-01-07 09:51:00,
2013-01-07 00:56:00,31.2,26.6,29.01,ENE,60,11.5,11.5,83,0.00,BKN,,0.00,0.0,WeatherDisplay:10.37,2013-01-07 09:56:00,
2013-01-07 01:01:00,31.4,27.1,29.01,East,90,10.0,10.0,84,0.00,BKN,,0.00,0.0,WeatherDisplay:10.37,2013-01-07 10:01:00,
2013-01-07 01:06:00,31.4,27.1,29.01,ENE,65,8.1,8.1,84,0.00,BKN,,0.00,0.0,WeatherDisplay:10.37,2013-01-07 10:06:00,
2013-01-07 01:11:00,31.4,27.1,29.01,ENE,71,6.9,6.9,84,0.00,BKN,,0.00,0.0,WeatherDisplay:10.37,2013-01-07 10:11:00,
2013-01-07 01:16:00,31.3,27.0,29.01,ENE,72,5.8,5.8,84,0.00,BKN,,0.00,0.0,WeatherDisplay:10.37,2013-01-07 10:16:00,
2013-01-07 01:21:00,31.1,26.8,29.02,ENE,71,9.2,9.2,84,0.00,BKN,,0.00,0.0,WeatherDisplay:10.37,2013-01-07 10:21:00,
2013-01-07 01:26:00,31.0,26.7,29.02,ENE,67,5.8,5.8,84,0.00,BKN,,0.00,0.0,WeatherDisplay:10.37,2013-01-07 10:26:00,
2013-01-07 01:31:00,30.8,26.8,29.02,ENE,76,6.9,6.9,85,0.00,BKN,,0.00,0.0,WeatherDisplay:10.37,2013-01-07 10:31:00,
2013-01-07 01:36:00,30.7,26.7,29.02,ENE,74,5.8,5.8,85,0.00,BKN,,0.00,0.0,WeatherDisplay:10.37,2013-01-07 10:36:00,
2013-01-07 01:41:00,30.6,26.9,29.02,ENE,61,6.9,6.9,86,0.00,BKN,,0.00,0.0,WeatherDisplay:10.37,2013-01-07 10:41:00,
2013-01-07 01:46:00,30.6,26.9,29.02,NE,50,5.8,5.8,86,0.00,BKN,,0.00,0.0,WeatherDisplay:10.37,2013-01-07 10:46:00,
2013-01-07 01:51:00,30.6,26.9,29.02,ENE,78,4.6,4.6,86,0.00,BKN,,0.00,0.0,WeatherDisplay:10.37,2013-01-07 10:51:00,
2013-01-07 01:56:00,30.6,27.2,29.02,NNE,27,8.1,8.1,87,0.00,BKN,,0.00,0.0,WeatherDisplay:10.37,2013-01-07 10:56:00,
2013-01-07 02:01:00,30.8,27.4,29.02,ENE,78,6.9,6.9,87,0.00,CLR,,0.00,0.0,WeatherDisplay:10.37,2013-01-07 11:01:00,
2013-01-07 02:06:00,30.9,27.5,29.03,ENE,72,7.0,7.0,87,0.00,CLR,,0.00,0.0,WeatherDisplay:10.37,2013-01-07 11:06:00,
2013-01-07 02:11:00,30.9,28.9,29.03,East,99,8.1,8.1,92,0.00,CLR,,0.00,0.0,WeatherDisplay:10.37,2013-01-07 11:11:00,
2013-01-07 02:16:00,30.8,27.1,29.03,ENE,57,8.1,8.1,86,0.00,CLR,,0.00,0.0,WeatherDisplay:10.37,2013-01-07 11:16:00,
2013-01-07 02:21:00,30.7,27.0,29.03,ENE,75,8.0,8.0,86,0.00,CLR,,0.00,0.0,WeatherDisplay:10.37,2013-01-07 11:21:00,
2013-01-07 02:26:00,30.6,26.9,29.03,East,89,5.8,5.8,86,0.00,CLR,,0.00,0.0,WeatherDisplay:10.37,2013-01-07 11:26:00,
2013-01-07 02:31:00,30.5,26.8,29.03,NE,51,3.0,3.0,86,0.00,CLR,,0.00,0.0,WeatherDisplay:10.37,2013-01-07 11:31:00,
2013-01-07 02:36:00,30.4,26.7,29.03,NE,38,4.6,4.6,86,0.00,CLR,,0.00,0.0,WeatherDisplay:10.37,2013-01-07 11:36:00,
2013-01-07 02:41:00,30.3,26.6,29.03,ENE,65,8.1,8.1,86,0.00,CLR,,0.00,0.0,WeatherDisplay:10.37,2013-01-07 11:41:00,
2013-01-07 02:46:00,30.4,26.7,29.03,ENE,67,9.2,9.2,86,0.00,CLR,,0.00,0.0,WeatherDisplay:10.37,2013-01-07 11:46:00,
2013-01-07 02:51:00,30.4,26.7,29.03,ENE,65,9.0,9.0,86,0.00,CLR,,0.00,0.0,WeatherDisplay:10.37,2013-01-07 11:51:00,
2013-01-07 02:56:00,30.5,26.8,29.03,NE,34,11.5,11.5,86,0.00,CLR,,0.00,0.0,WeatherDisplay:10.37,2013-01-07 11:56:00,
2013-01-07 03:01:00,30.5,26.8,29.03,NNE,32,3.5,3.5,86,0.00,SCT,,0.00,0.0,WeatherDisplay:10.37,2013-01-07 12:01:00,
2013-01-07 03:06:00,30.6,26.9,29.03,NE,52,5.0,5.0,86,0.00,SCT,,0.00,0.0,WeatherDisplay:10.37,2013-01-07 12:06:00,
2013-01-07 03:11:00,30.6,26.9,29.03,East,90,6.9,6.9,86,0.00,SCT,,0.00,0.0,WeatherDisplay:10.37,2013-01-07 12:11:00,
2013-01-07 03:16:00,30.6,26.9,29.03,NE,46,6.9,6.9,86,0.00,SCT,,0.00,0.0,WeatherDisplay:10.37,2013-01-07 12:16:00,
2013-01-07 03:21:00,30.6,26.9,29.02,NE,42,4.0,4.0,86,0.00,SCT,,0.00,0.0,WeatherDisplay:10.37,2013-01-07 12:21:00,
2013-01-07 03:26:00,30.6,26.9,29.03,East,101,8.1,8.1,86,0.00,SCT,,0.00,0.0,WeatherDisplay:10.37,2013-01-07 12:26:00,
2013-01-07 03:31:00,30.7,27.0,29.03,NE,51,9.2,9.2,86,0.00,SCT,,0.00,0.0,WeatherDisplay:10.37,2013-01-07 12:31:00,
2013-01-07 03:36:00,30.9,27.2,29.03,East,84,4.6,4.6,86,0.00,SCT,,0.00,0.0,WeatherDisplay:10.37,2013-01-07 12:36:00,
2013-01-07 03:41:00,31.1,27.4,29.03,ESE,109,8.1,8.1,86,0.00,SCT,,0.00,0.0,WeatherDisplay:10.37,2013-01-07 12:41:00,
2013-01-07 03:46:00,31.4,27.4,29.03,NE,55,8.1,8.1,85,0.00,SCT,,0.00,0.0,WeatherDisplay:10.37,2013-01-07 12:46:00,
2013-01-07 03:51:00,31.5,27.5,29.03,ENE,75,6.9,6.9,85,0.00,SCT,,0.00,0.0,WeatherDisplay:10.37,2013-01-07 12:51:00,
2013-01-07 03:56:00,31.7,27.7,29.03,East,91,8.1,8.1,85,0.00,SCT,,0.00,0.0,WeatherDisplay:10.37,2013-01-07 12:56:00,
2013-01-07 04:01:00,31.8,27.8,29.03,ENE,70,6.9,6.9,85,0.00,OVC,,0.00,0.0,WeatherDisplay:10.37,2013-01-07 13:01:00,
2013-01-07 04:06:00,31.9,28.2,29.02,NE,40,12.7,12.7,86,0.00,OVC,,0.00,0.0,WeatherDisplay:10.37,2013-01-07 13:06:00,
2013-01-07 04:11:00,32.0,28.0,29.02,ENE,75,8.1,8.1,85,0.00,OVC,,0.00,0.0,WeatherDisplay:10.37,2013-01-07 13:11:00,
2013-01-07 04:16:00,32.0,28.0,29.02,ENE,73,9.2,9.2,85,0.00,OVC,,0.00,0.0,WeatherDisplay:10.37,2013-01-07 13:16:00,
2013-01-07 04:21:00,32.1,28.1,29.02,NE,34,5.0,5.0,85,0.00,OVC,,0.00,0.0,WeatherDisplay:10.37,2013-01-07 13:21:00,
2013-01-07 04:26:00,32.1,28.1,29.02,ENE,59,7.0,7.0,85,0.00,OVC,,0.00,0.0,WeatherDisplay:10.37,2013-01-07 13:26:00,
2013-01-07 04:31:00,32.1,28.1,29.02,East,88,10.4,10.4,85,0.00,OVC,,0.00,0.0,WeatherDisplay:10.37,2013-01-07 13:31:00,
2013-01-07 04:36:00,32.2,28.2,29.02,ENE,73,7.0,7.0,85,0.00,OVC,,0.00,0.0,WeatherDisplay:10.37,2013-01-07 13:36:00,
2013-01-07 04:41:00,32.1,28.1,29.02,East,83,5.8,5.8,85,0.00,OVC,,0.00,0.0,WeatherDisplay:10.37,2013-01-07 13:41:00,
2013-01-07 04:46:00,32.1,27.8,29.02,NNE,30,6.9,6.9,84,0.00,OVC,,0.00,0.0,WeatherDisplay:10.37,2013-01-07 13:46:00,
2013-01-07 04:51:00,32.1,27.8,29.02,NE,39,6.9,6.9,84,0.00,OVC,,0.00,0.0,WeatherDisplay:10.37,2013-01-07 13:51:00,
2013-01-07 04:56:00,32.1,27.8,29.02,NE,50,7.0,7.0,84,0.00,OVC,,0.00,0.0,WeatherDisplay:10.37,2013-01-07 13:56:00,
2013-01-07 05:01:00,32.1,27.8,29.02,ENE,76,12.7,12.7,84,0.00,SCT,,0.00,0.0,WeatherDisplay:10.37,2013-01-07 14:01:00,
2013-01-07 05:06:00,32.1,27.8,29.02,NNE,23,7.0,7.0,84,0.00,SCT,,0.00,0.0,WeatherDisplay:10.37,2013-01-07 14:06:00,
2013-01-07 05:11:00,32.1,27.8,29.02,NNE,25,6.9,6.9,84,0.00,SCT,,0.00,0.0,WeatherDisplay:10.37,2013-01-07 14:11:00,
2013-01-07 05:16:00,32.2,27.6,29.02,NE,49,17.3,17.3,83,0.00,SCT,,0.00,0.0,WeatherDisplay:10.37,2013-01-07 14:16:00,
2013-01-07 05:21:00,32.3,27.7,29.03,NNE,33,10.4,10.4,83,0.00,SCT,,0.00,0.0,WeatherDisplay:10.37,2013-01-07 14:21:00,
2013-01-07 05:26:00,32.4,27.5,29.03,NE,44,10.4,10.4,82,0.00,SCT,,0.00,0.0,WeatherDisplay:10.37,2013-01-07 14:26:00,
2013-01-07 05:29:00,32.4,27.5,29.03,NE,38,9.2,9.2,82,0.00,SCT,,0.00,0.0,WeatherDisplay:10.37,2013-01-07 14:29:00,
2013-01-07 05:34:00,32.5,27.6,29.03,NE,49,10.4,10.4,82,0.00,SCT,,0.00,0.0,WeatherDisplay:10.37,2013-01-07 14:34:00,
2013-01-07 05:39:00,32.5,27.6,29.03,NNE,31,9.2,9.2,82,0.00,SCT,,0.00,0.0,WeatherDisplay:10.37,2013-01-07 14:39:00,
2013-01-07 05:44:00,32.5,27.3,29.03,NE,51,9.2,9.2,81,0.00,SCT,,0.00,0.0,WeatherDisplay:10.37,2013-01-07 14:44:00,
2013-01-07 05:49:00,32.5,27.3,29.02,ENE,62,11.5,11.5,81,0.00,SCT,,0.00,0.0,WeatherDisplay:10.37,2013-01-07 14:49:00,
2013-01-07 05:54:00,32.5,27.3,29.02,ENE,65,11.5,11.5,81,0.00,SCT,,0.00,0.0,WeatherDisplay:10.37,2013-01-07 14:54:00,
2013-01-07 05:59:00,32.5,27.6,29.02,ENE,65,15.0,15.0,82,0.00,SCT,,0.00,0.0,WeatherDisplay:10.37,2013-01-07 14:59:00,
2013-01-07 06:04:00,32.5,27.6,29.02,ENE,57,13.8,13.8,82,0.00,CLR,,0.00,0.0,WeatherDisplay:10.37,2013-01-07 15:04:00,
2013-01-07 06:09:00,32.5,27.6,29.02,NE,37,11.5,11.5,82,0.00,CLR,,0.00,0.0,WeatherDisplay:10.37,2013-01-07 15:09:00,
2013-01-07 06:14:00,32.5,27.3,29.02,North,5,11.5,11.5,81,0.00,CLR,,0.00,0.0,WeatherDisplay:10.37,2013-01-07 15:14:00,
2013-01-07 06:19:00,32.5,27.3,29.02,NE,40,11.5,11.5,81,0.00,CLR,,0.00,0.0,WeatherDisplay:10.37,2013-01-07 15:19:00,
2013-01-07 06:24:00,32.6,27.4,29.03,NE,53,11.5,11.5,81,0.00,CLR,,0.00,0.0,WeatherDisplay:10.37,2013-01-07 15:24:00,
2013-01-07 06:29:00,32.6,27.1,29.03,NE,55,11.5,11.5,80,0.00,CLR,,0.00,0.0,WeatherDisplay:10.37,2013-01-07 15:29:00,
2013-01-07 06:34:00,32.6,27.1,29.03,ENE,67,11.5,11.5,80,0.00,CLR,,0.00,0.0,WeatherDisplay:10.37,2013-01-07 15:34:00,
2013-01-07 06:39:00,32.6,27.1,29.02,ENE,57,11.5,11.5,80,0.00,CLR,,0.00,0.0,WeatherDisplay:10.37,2013-01-07 15:39:00,
2013-01-07 06:44:00,32.6,27.1,29.03,ENE,59,12.7,12.7,80,0.00,CLR,,0.00,0.0,WeatherDisplay:10.37,2013-01-07 15:44:00,
2013-01-07 06:49:00,32.6,26.8,29.02,NE,37,9.2,9.2,79,0.00,CLR,,0.00,0.0,WeatherDisplay:10.37,2013-01-07 15:49:00,
2013-01-07 06:54:00,32.7,26.9,29.03,NE,53,11.5,11.5,79,0.00,CLR,,0.00,0.0,WeatherDisplay:10.37,2013-01-07 15:54:00,
2013-01-07 06:59:00,32.7,26.6,29.03,NE,52,11.5,11.5,78,0.00,CLR,,0.00,0.0,WeatherDisplay:10.37,2013-01-07 15:59:00,
2013-01-07 07:04:00,32.7,26.6,29.03,East,80,9.2,9.2,78,0.00,BKN,,0.00,0.0,WeatherDisplay:10.37,2013-01-07 16:04:00,
2013-01-07 07:09:00,32.7,26.6,29.03,East,80,15.0,15.0,78,0.00,BKN,,0.00,0.0,WeatherDisplay:10.37,2013-01-07 16:09:00,
2013-01-07 07:14:00,32.7,26.6,29.03,NNE,28,15.0,15.0,78,0.00,BKN,,0.00,0.0,WeatherDisplay:10.37,2013-01-07 16:14:00,
2013-01-07 07:19:00,32.7,26.6,29.04,NNE,31,11.5,11.5,78,0.00,BKN,,0.00,0.0,WeatherDisplay:10.37,2013-01-07 16:19:00,
2013-01-07 07:24:00,32.7,26.3,29.04,ENE,76,13.8,13.8,77,0.00,BKN,,0.00,0.0,WeatherDisplay:10.37,2013-01-07 16:24:00,
2013-01-07 07:29:00,32.6,26.5,29.04,NE,55,10.4,10.4,78,0.00,BKN,,0.00,0.0,WeatherDisplay:10.37,2013-01-07 16:29:00,
2013-01-07 07:34:00,32.6,26.5,29.04,NNE,31,15.0,15.0,78,0.00,BKN,,0.00,0.0,WeatherDisplay:10.37,2013-01-07 16:34:00,
2013-01-07 07:39:00,32.5,26.4,29.04,NE,53,11.5,11.5,78,0.00,BKN,,0.00,0.0,WeatherDisplay:10.37,2013-01-07 16:39:00,
2013-01-07 07:44:00,32.5,26.4,29.04,East,80,13.8,13.8,78,0.00,BKN,,0.00,0.0,WeatherDisplay:10.37,2013-01-07 16:44:00,
2013-01-07 07:49:00,32.5,26.4,29.04,ENE,70,12.0,12.0,78,0.00,BKN,,0.00,0.0,WeatherDisplay:10.37,2013-01-07 16:49:00,
2013-01-07 07:54:00,32.5,26.7,29.04,NE,48,9.2,9.2,79,0.00,BKN,,0.00,0.0,WeatherDisplay:10.37,2013-01-07 16:54:00,
2013-01-07 07:59:00,32.4,26.6,29.04,NE,37,12.7,12.7,79,0.00,BKN,,0.00,0.0,WeatherDisplay:10.37,2013-01-07 16:59:00,
2013-01-07 08:04:00,32.4,26.6,29.05,NNE,28,8.1,8.1,79,0.00,CLR,,0.00,0.0,WeatherDisplay:10.37,2013-01-07 17:04:00,
2013-01-07 08:09:00,32.4,26.6,29.05,NE,39,12.0,12.0,79,0.00,CLR,,0.00,0.0,WeatherDisplay:10.37,2013-01-07 17:09:00,
2013-01-07 08:14:00,32.4,26.6,29.05,East,94,16.1,16.1,79,0.00,CLR,,0.00,0.0,WeatherDisplay:10.37,2013-01-07 17:14:00,
2013-01-07 08:19:00,32.4,26.6,29.05,East,92,9.2,9.2,79,0.00,CLR,,0.00,0.0,WeatherDisplay:10.37,2013-01-07 17:19:00,
2013-01-07 08:24:00,32.4,26.6,29.05,NE,38,11.5,11.5,79,0.00,CLR,,0.00,0.0,WeatherDisplay:10.37,2013-01-07 17:24:00,
2013-01-07 08:29:00,32.5,26.7,29.05,East,79,13.8,13.8,79,0.00,CLR,,0.00,0.0,WeatherDisplay:10.37,2013-01-07 17:29:00,
2013-01-07 08:34:00,32.4,26.6,29.05,NE,46,10.4,10.4,79,0.00,CLR,,0.00,0.0,WeatherDisplay:10.37,2013-01-07 17:34:00,
2013-01-07 08:39:00,32.4,26.6,29.05,NE,55,9.2,9.2,79,0.00,CLR,,0.00,0.0,WeatherDisplay:10.37,2013-01-07 17:39:00,
2013-01-07 08:44:00,32.4,26.3,29.05,NE,43,10.4,10.4,78,0.00,CLR,,0.00,0.0,WeatherDisplay:10.37,2013-01-07 17:44:00,
2013-01-07 08:49:00,32.4,26.3,29.06,NE,49,11.5,11.5,78,0.00,CLR,,0.00,0.0,WeatherDisplay:10.37,2013-01-07 17:49:00,
2013-01-07 08:54:00,32.4,26.6,29.06,NE,55,11.5,11.5,79,0.00,CLR,,0.00,0.0,WeatherDisplay:10.37,2013-01-07 17:54:00,
2013-01-07 08:59:00,32.4,26.6,29.06,NNE,23,13.8,13.8,79,0.00,CLR,,0.00,0.0,WeatherDisplay:10.37,2013-01-07 17:59:00,
2013-01-07 09:04:00,32.4,26.6,29.06,East,95,10.4,10.4,79,0.00,OVC,,0.00,0.0,WeatherDisplay:10.37,2013-01-07 18:04:00,
2013-01-07 09:09:00,32.4,26.6,29.06,ENE,61,10.4,10.4,79,0.00,OVC,,0.00,0.0,WeatherDisplay:10.37,2013-01-07 18:09:00,
2013-01-07 09:14:00,32.4,26.6,29.07,ENE,61,11.5,11.5,79,0.00,OVC,,0.00,0.0,WeatherDisplay:10.37,2013-01-07 18:14:00,
2013-01-07 09:19:00,32.4,26.6,29.06,NNE,19,12.7,12.7,79,0.00,OVC,,0.00,0.0,WeatherDisplay:10.37,2013-01-07 18:19:00,
2013-01-07 09:24:00,32.4,26.6,29.07,NE,56,9.2,9.2,79,0.00,OVC,,0.00,0.0,WeatherDisplay:10.37,2013-01-07 18:24:00,
2013-01-07 09:29:00,32.4,26.9,29.07,East,79,10.4,10.4,80,0.00,OVC,,0.00,0.0,WeatherDisplay:10.37,2013-01-07 18:29:00,
2013-01-07 09:34:00,32.4,26.9,29.07,East,90,11.5,11.5,80,0.00,OVC,,0.00,0.0,WeatherDisplay:10.37,2013-01-07 18:34:00,
2013-01-07 09:39:00,32.3,26.8,29.07,NE,35,13.8,13.8,80,0.00,OVC,,0.00,0.0,WeatherDisplay:10.37,2013-01-07 18:39:00,
2013-01-07 09:44:00,32.3,26.8,29.08,ENE,59,9.2,9.2,80,0.00,OVC,,0.00,0.0,WeatherDisplay:10.37,2013-01-07 18:44:00,
2013-01-07 09:49:00,32.2,26.7,29.07,NE,53,9.2,9.2,80,0.00,OVC,,0.00,0.0,WeatherDisplay:10.37,2013-01-07 18:49:00,
2013-01-07 09:54:00,32.3,26.8,29.08,NE,43,11.5,11.5,80,0.00,OVC,,0.00,0.0,WeatherDisplay:10.37,2013-01-07 18:54:00,
2013-01-07 09:59:00,32.3,26.8,29.08,NE,55,10.4,10.4,80,0.00,OVC,,0.00,0.0,WeatherDisplay:10.37,2013-01-07 18:59:00,
2013-01-07 10:04:00,32.3,26.8,29.08,ENE,74,11.5,11.5,80,0.00,BKN,,0.00,0.0,WeatherDisplay:10.37,2013-01-07 19:04:00,
2013-01-07 10:09:00,32.4,26.9,29.08,ENE,74,11.5,11.5,80,0.00,BKN,,0.00,0.0,WeatherDisplay:10.37,2013-01-07 19:09:00,
2013-01-07 10:14:00,32.3,26.8,29.08,East,79,11.5,11.5,80,0.00,BKN,,0.00,0.0,WeatherDisplay:10.37,2013-01-07 19:14:00,
2013-01-07 10:19:00,32.3,26.8,29.09,NE,55,8.1,8.1,80,0.00,BKN,,0.00,5.0,WeatherDisplay:10.37,2013-01-07 19:19:00,
2013-01-07 10:24:00,32.3,26.8,29.09,NE,53,11.5,11.5,80,0.00,BKN,,0.00,7.0,WeatherDisplay:10.37,2013-01-07 19:24:00,
2013-01-07 10:29:00,32.3,26.8,29.09,NE,46,9.2,9.2,80,0.00,BKN,,0.00,9.0,WeatherDisplay:10.37,2013-01-07 19:29:00,
2013-01-07 10:34:00,32.2,27.0,29.09,ENE,57,10.4,10.4,81,0.00,BKN,,0.00,11.0,WeatherDisplay:10.37,2013-01-07 19:34:00,
2013-01-07 10:39:00,32.2,27.0,29.09,ENE,65,8.1,8.1,81,0.00,BKN,,0.00,12.0,WeatherDisplay:10.37,2013-01-07 19:39:00,
2013-01-07 10:44:00,32.2,27.0,29.10,NE,45,11.5,11.5,81,0.00,BKN,,0.00,12.0,WeatherDisplay:10.37,2013-01-07 19:44:00,
2013-01-07 10:49:00,32.2,27.0,29.10,ENE,75,11.5,11.5,81,0.00,BKN,,0.00,14.0,WeatherDisplay:10.37,2013-01-07 19:49:00,
2013-01-07 10:54:00,32.3,27.1,29.10,East,82,6.9,6.9,81,0.00,BKN,,0.00,14.0,WeatherDisplay:10.37,2013-01-07 19:54:00,
2013-01-07 10:59:00,32.3,27.1,29.10,ENE,70,11.5,11.5,81,0.00,BKN,,0.00,14.0,WeatherDisplay:10.37,2013-01-07 19:59:00,
2013-01-07 11:04:00,32.3,27.1,29.10,ENE,72,13.8,13.8,81,0.00,BKN,,0.00,14.0,WeatherDisplay:10.37,2013-01-07 20:04:00,
2013-01-07 11:09:00,32.3,26.8,29.10,NE,55,11.5,11.5,80,0.00,BKN,,0.00,16.0,WeatherDisplay:10.37,2013-01-07 20:09:00,
2013-01-07 11:14:00,32.3,26.8,29.10,East,86,12.7,12.7,80,0.00,BKN,,0.00,18.0,WeatherDisplay:10.37,2013-01-07 20:14:00,
2013-01-07 11:19:00,32.3,26.8,29.10,East,94,10.0,10.0,80,0.00,BKN,,0.00,19.0,WeatherDisplay:10.37,2013-01-07 20:19:00,
2013-01-07 11:24:00,32.3,26.8,29.11,NE,40,12.7,12.7,80,0.00,BKN,,0.00,21.0,WeatherDisplay:10.37,2013-01-07 20:24:00,
2013-01-07 11:29:00,32.3,26.8,29.11,NE,55,11.0,11.0,80,0.00,BKN,,0.00,23.0,WeatherDisplay:10.37,2013-01-07 20:29:00,
2013-01-07 11:34:00,32.3,26.8,29.11,ENE,73,11.5,11.5,80,0.00,BKN,,0.00,25.0,WeatherDisplay:10.37,2013-01-07 20:34:00,
2013-01-07 11:39:00,32.4,26.9,29.11,East,82,11.5,11.5,80,0.00,BKN,,0.00,25.0,WeatherDisplay:10.37,2013-01-07 20:39:00,
2013-01-07 11:44:00,32.4,26.9,29.11,ENE,71,8.1,8.1,80,0.00,BKN,,0.00,26.0,WeatherDisplay:10.37,2013-01-07 20:44:00,
2013-01-07 11:49:00,32.4,26.9,29.11,ENE,61,9.2,9.2,80,0.00,BKN,,0.00,28.0,WeatherDisplay:10.37,2013-01-07 20:49:00,
2013-01-07 11:54:00,32.4,26.9,29.11,ENE,65,13.8,13.8,80,0.00,BKN,,0.00,28.0,WeatherDisplay:10.37,2013-01-07 20:54:00,
2013-01-07 11:59:00,32.5,27.0,29.11,ENE,64,10.4,10.4,80,0.00,BKN,,0.00,30.0,WeatherDisplay:10.37,2013-01-07 20:59:00,
2013-01-07 12:04:00,32.5,27.0,29.11,East,82,10.4,10.4,80,0.00,BKN,,0.00,32.0,WeatherDisplay:10.37,2013-01-07 21:04:00,
2013-01-07 12:09:00,32.5,27.0,29.12,NNE,13,10.4,10.4,80,0.00,BKN,,0.00,32.0,WeatherDisplay:10.37,2013-01-07 21:09:00,
2013-01-07 12:14:00,32.6,26.8,29.12,NE,55,12.0,12.0,79,0.00,BKN,,0.00,32.0,WeatherDisplay:10.37,2013-01-07 21:14:00,
2013-01-07 12:19:00,32.7,26.9,29.12,East,94,13.8,13.8,79,0.00,BKN,,0.00,32.0,WeatherDisplay:10.37,2013-01-07 21:19:00,
2013-01-07 12:24:00,32.8,27.0,29.12,ENE,67,12.7,12.7,79,0.00,BKN,,0.00,30.0,WeatherDisplay:10.37,2013-01-07 21:24:00,
2013-01-07 12:29:00,32.8,26.7,29.13,East,84,8.1,8.1,78,0.00,BKN,,0.00,32.0,WeatherDisplay:10.37,2013-01-07 21:29:00,
2013-01-07 12:34:00,32.8,26.7,29.13,ESE,119,11.5,11.5,78,0.00,BKN,,0.00,32.0,WeatherDisplay:10.37,2013-01-07 21:34:00,
2013-01-07 12:39:00,32.8,26.7,29.13,ENE,70,11.5,11.5,78,0.00,BKN,,0.00,33.0,WeatherDisplay:10.37,2013-01-07 21:39:00,
2013-01-07 12:44:00,32.8,26.7,29.13,ENE,76,10.4,10.4,78,0.00,BKN,,0.00,37.0,WeatherDisplay:10.37,2013-01-07 21:44:00,
2013-01-07 12:49:00,32.8,26.7,29.13,East,88,15.0,15.0,78,0.00,BKN,,0.00,40.0,WeatherDisplay:10.37,2013-01-07 21:49:00,
2013-01-07 12:54:00,32.9,26.8,29.13,East,97,12.7,12.7,78,0.00,BKN,,0.00,42.0,WeatherDisplay:10.37,2013-01-07 21:54:00,
2013-01-07 12:59:00,32.9,26.8,29.13,East,79,11.5,11.5,78,0.00,BKN,,0.00,42.0,WeatherDisplay:10.37,2013-01-07 21:59:00,
2013-01-07 13:04:00,33.0,26.9,29.14,East,86,11.5,11.5,78,0.00,CLR,,0.00,40.0,WeatherDisplay:10.37,2013-01-07 22:04:00,
2013-01-07 13:09:00,33.0,27.2,29.14,NNE,24,11.5,11.5,79,0.00,CLR,,0.00,39.0,WeatherDisplay:10.37,2013-01-07 22:09:00,
2013-01-07 13:14:00,33.0,27.2,29.14,ENE,61,8.1,8.1,79,0.00,CLR,,0.00,39.0,WeatherDisplay:10.37,2013-01-07 22:14:00,
2013-01-07 13:19:00,32.9,27.1,29.14,ENE,78,9.2,9.2,79,0.00,CLR,,0.00,37.0,WeatherDisplay:10.37,2013-01-07 22:19:00,
2013-01-07 13:24:00,33.0,27.2,29.14,ENE,65,11.5,11.5,79,0.00,CLR,,0.00,39.0,WeatherDisplay:10.37,2013-01-07 22:24:00,
2013-01-07 13:29:00,32.9,27.1,29.15,NNE,27,11.5,11.5,79,0.00,CLR,,0.00,42.0,WeatherDisplay:10.37,2013-01-07 22:29:00,
2013-01-07 13:34:00,32.9,27.1,29.15,NE,53,8.1,8.1,79,0.00,CLR,,0.00,44.0,WeatherDisplay:10.37,2013-01-07 22:34:00,
2013-01-07 13:39:00,32.9,27.1,29.15,NE,36,9.2,9.2,79,0.00,CLR,,0.00,46.0,WeatherDisplay:10.37,2013-01-07 22:39:00,
2013-01-07 13:44:00,32.9,27.1,29.15,ENE,70,12.7,12.7,79,0.00,CLR,,0.00,44.0,WeatherDisplay:10.37,2013-01-07 22:44:00,
2013-01-07 13:49:00,32.9,26.8,29.15,NE,43,10.4,10.4,78,0.00,CLR,,0.00,42.0,WeatherDisplay:10.37,2013-01-07 22:49:00,
2013-01-07 13:54:00,32.9,26.8,29.15,NE,36,13.8,13.8,78,0.00,CLR,,0.00,37.0,WeatherDisplay:10.37,2013-01-07 22:54:00,
2013-01-07 13:59:00,32.9,26.8,29.16,ESE,108,11.5,11.5,78,0.00,CLR,,0.00,35.0,WeatherDisplay:10.37,2013-01-07 22:59:00,
2013-01-07 14:04:00,32.9,26.8,29.16,ENE,63,10.4,10.4,78,0.00,CLR,,0.00,35.0,WeatherDisplay:10.37,2013-01-07 23:04:00,
2013-01-07 14:09:00,32.9,26.5,29.16,ENE,69,9.2,9.2,77,0.00,CLR,,0.00,35.0,WeatherDisplay:10.37,2013-01-07 23:09:00,
2013-01-07 14:14:00,32.9,26.5,29.16,East,86,13.8,13.8,77,0.00,CLR,,0.00,37.0,WeatherDisplay:10.37,2013-01-07 23:14:00,
2013-01-07 14:19:00,32.9,26.5,29.16,ESE,103,8.1,8.1,77,0.00,CLR,,0.00,39.0,WeatherDisplay:10.37,2013-01-07 23:19:00,
2013-01-07 14:24:00,32.9,26.5,29.17,NE,55,12.7,12.7,77,0.00,CLR,,0.00,42.0,WeatherDisplay:10.37,2013-01-07 23:24:00,
2013-01-07 14:29:00,32.9,26.5,29.17,NE,49,12.7,12.7,77,0.00,CLR,,0.00,47.0,WeatherDisplay:10.37,2013-01-07 23:29:00,
2013-01-07 14:34:00,32.9,26.5,29.17,NE,52,9.2,9.2,77,0.00,CLR,,0.00,51.0,WeatherDisplay:10.37,2013-01-07 23:34:00,
2013-01-07 14:39:00,32.9,26.5,29.17,NE,56,8.1,8.1,77,0.00,CLR,,0.00,53.0,WeatherDisplay:10.37,2013-01-07 23:39:00,
2013-01-07 14:44:00,32.9,26.5,29.17,East,97,6.9,6.9,77,0.00,CLR,,0.00,53.0,WeatherDisplay:10.37,2013-01-07 23:44:00,
2013-01-07 14:49:00,32.9,26.2,29.17,ENE,70,11.5,11.5,76,0.00,CLR,,0.00,49.0,WeatherDisplay:10.37,2013-01-07 23:49:00,
2013-01-07 14:54:00,32.9,26.2,29.17,ENE,59,13.8,13.8,76,0.00,CLR,,0.00,44.0,WeatherDisplay:10.37,2013-01-07 23:54:00,
2013-01-07 14:59:00,32.9,26.2,29.17,East,79,10.4,10.4,76,0.00,CLR,,0.00,40.0,WeatherDisplay:10.37,2013-01-07 23:59:00,
2013-01-07 15:04:00,32.9,26.2,29.18,East,90,11.5,11.5,76,0.00,SCT,,0.00,35.0,WeatherDisplay:10.37,2013-01-08 00:04:00,
2013-01-07 15:09:00,32.9,26.2,29.18,ENE,73,11.5,11.5,76,0.00,SCT,,0.00,32.0,WeatherDisplay:10.37,2013-01-08 00:09:00,
2013-01-07 15:14:00,32.9,26.2,29.18,East,90,8.1,8.1,76,0.00,SCT,,0.00,30.0,WeatherDisplay:10.37,2013-01-08 00:14:00,
2013-01-07 15:19:00,32.8,26.1,29.18,NNE,24,6.9,6.9,76,0.00,SCT,,0.00,28.0,WeatherDisplay:10.37,2013-01-08 00:19:00,
2013-01-07 15:24:00,32.8,26.1,29.18,ENE,65,11.5,11.5,76,0.00,SCT,,0.00,28.0,WeatherDisplay:10.37,2013-01-08 00:24:00,
2013-01-07 15:29:00,32.8,26.1,29.19,NE,38,9.2,9.2,76,0.00,SCT,,0.00,30.0,WeatherDisplay:10.37,2013-01-08 00:29:00,
2013-01-07 15:34:00,32.8,26.1,29.18,East,80,9.2,9.2,76,0.00,SCT,,0.00,30.0,WeatherDisplay:10.37,2013-01-08 00:34:00,
2013-01-07 15:39:00,32.8,26.1,29.19,East,92,9.2,9.2,76,0.00,SCT,,0.00,28.0,WeatherDisplay:10.37,2013-01-08 00:39:00,
2013-01-07 15:44:00,32.8,25.7,29.19,ENE,77,9.2,9.2,75,0.00,SCT,,0.00,28.0,WeatherDisplay:10.37,2013-01-08 00:44:00,
2013-01-07 15:49:00,32.8,25.7,29.19,ENE,74,8.1,8.1,75,0.00,SCT,,0.00,25.0,WeatherDisplay:10.37,2013-01-08 00:49:00,
2013-01-07 15:54:00,32.7,25.6,29.19,NE,42,11.5,11.5,75,0.00,SCT,,0.00,23.0,WeatherDisplay:10.37,2013-01-08 00:54:00,
2013-01-07 16:00:00,32.6,25.2,29.19,ENE,72,4.6,4.6,74,0.00,SCT,,0.00,21.0,WeatherDisplay:10.37,2013-01-08 01:00:00,
2013-01-07 16:05:00,32.5,25.1,29.19,NE,34,9.2,9.2,74,0.00,OVC,,0.00,19.0,WeatherDisplay:10.37,2013-01-08 01:05:00,
2013-01-07 16:10:00,32.5,25.1,29.20,ENE,67,9.2,9.2,74,0.00,OVC,,0.00,16.0,WeatherDisplay:10.37,2013-01-08 01:10:00,
2013-01-07 16:15:00,32.4,25.4,29.20,ENE,63,8.0,8.0,75,0.00,OVC,,0.00,11.0,WeatherDisplay:10.37,2013-01-08 01:15:00,
2013-01-07 16:20:00,32.3,25.3,29.20,ENE,59,11.0,11.0,75,0.00,OVC,,0.00,5.0,WeatherDisplay:10.37,2013-01-08 01:20:00,
2013-01-07 16:25:00,32.3,25.3,29.20,ENE,78,9.2,9.2,75,0.00,OVC,,0.00,0.0,WeatherDisplay:10.37,2013-01-08 01:25:00,
2013-01-07 16:30:00,32.3,25.3,29.20,NNE,21,13.8,13.8,75,0.00,OVC,,0.00,0.0,WeatherDisplay:10.37,2013-01-08 01:30:00,
2013-01-07 16:35:00,32.3,24.9,29.20,East,87,16.1,16.1,74,0.00,OVC,,0.00,0.0,WeatherDisplay:10.37,2013-01-08 01:35:00,
2013-01-07 16:40:00,32.3,25.3,29.21,ENE,63,4.6,4.6,75,0.00,OVC,,0.00,0.0,WeatherDisplay:10.37,2013-01-08 01:40:00,
2013-01-07 16:45:00,32.3,25.3,29.21,East,80,6.9,6.9,75,0.00,OVC,,0.00,0.0,WeatherDisplay:10.37,2013-01-08 01:45:00,
2013-01-07 16:50:00,32.3,25.3,29.21,ENE,70,9.2,9.2,75,0.00,OVC,,0.00,0.0,WeatherDisplay:10.37,2013-01-08 01:50:00,
2013-01-07 16:55:00,32.3,25.3,29.21,East,86,9.2,9.2,75,0.00,OVC,,0.00,0.0,WeatherDisplay:10.37,2013-01-08 01:55:00,
2013-01-07 17:00:00,32.3,25.3,29.21,NE,50,9.2,9.2,75,0.00,OVC,,0.00,0.0,WeatherDisplay:10.37,2013-01-08 02:00:00,
2013-01-07 17:05:00,32.3,25.6,29.21,East,100,10.0,10.0,76,0.00,OVC,,0.00,0.0,WeatherDisplay:10.37,2013-01-08 02:05:00,
2013-01-07 17:10:00,32.2,25.2,29.21,NE,38,9.2,9.2,75,0.00,OVC,,0.00,0.0,WeatherDisplay:10.37,2013-01-08 02:10:00,
2013-01-07 17:15:00,32.1,25.1,29.22,NE,37,10.4,10.4,75,0.00,OVC,,0.00,0.0,WeatherDisplay:10.37,2013-01-08 02:15:00,
2013-01-07 17:20:00,32.0,25.0,29.22,NE,55,10.4,10.4,75,0.00,OVC,,0.00,0.0,WeatherDisplay:10.37,2013-01-08 02:20:00,
2013-01-07 17:25:00,31.9,24.6,29.22,NE,53,10.4,10.4,74,0.00,OVC,,0.00,0.0,WeatherDisplay:10.37,2013-01-08 02:25:00,
2013-01-07 17:30:00,31.9,24.6,29.22,NE,48,8.1,8.1,74,0.00,OVC,,0.00,0.0,WeatherDisplay:10.37,2013-01-08 02:30:00,
2013-01-07 17:35:00,31.9,24.6,29.22,NNE,21,9.0,9.0,74,0.00,OVC,,0.00,0.0,WeatherDisplay:10.37,2013-01-08 02:35:00,
2013-01-07 17:40:00,31.9,24.6,29.22,NE,46,11.5,11.5,74,0.00,OVC,,0.00,0.0,WeatherDisplay:10.37,2013-01-08 02:40:00,
2013-01-07 17:45:00,31.9,24.2,29.22,NNE,30,10.4,10.4,73,0.00,OVC,,0.00,0.0,WeatherDisplay:10.37,2013-01-08 02:45:00,
2013-01-07 17:50:00,31.8,24.1,29.23,ENE,77,9.2,9.2,73,0.00,OVC,,0.00,0.0,WeatherDisplay:10.37,2013-01-08 02:50:00,
2013-01-07 17:55:00,31.8,24.1,29.23,NE,50,9.2,9.2,73,0.00,OVC,,0.00,0.0,WeatherDisplay:10.37,2013-01-08 02:55:00,
2013-01-07 18:00:00,31.7,24.0,29.23,East,83,9.2,9.2,73,0.00,OVC,,0.00,0.0,WeatherDisplay:10.37,2013-01-08 03:00:00,
2013-01-07 18:05:00,31.7,24.0,29.23,NE,34,10.4,10.4,73,0.00,FEW,,0.00,0.0,WeatherDisplay:10.37,2013-01-08 03:05:00,
2013-01-07 18:10:00,31.6,23.9,29.24,ENE,76,8.1,8.1,73,0.00,FEW,,0.00,0.0,WeatherDisplay:10.37,2013-01-08 03:10:00,
2013-01-07 18:15:00,31.4,23.7,29.24,East,100,8.1,8.1,73,0.00,FEW,,0.00,0.0,WeatherDisplay:10.37,2013-01-08 03:15:00,
2013-01-07 18:20:00,31.3,23.6,29.24,East,100,7.0,7.0,73,0.00,FEW,,0.00,0.0,WeatherDisplay:10.37,2013-01-08 03:20:00,
2013-01-07 18:25:00,31.2,23.9,29.24,North,9,9.2,9.2,74,0.00,FEW,,0.00,0.0,WeatherDisplay:10.37,2013-01-08 03:25:00,
2013-01-07 18:30:00,31.1,23.8,29.24,NE,44,9.2,9.2,74,0.00,FEW,,0.00,0.0,WeatherDisplay:10.37,2013-01-08 03:30:00,
2013-01-07 18:35:00,31.0,23.7,29.25,ENE,61,5.8,5.8,74,0.00,FEW,,0.00,0.0,WeatherDisplay:10.37,2013-01-08 03:35:00,
2013-01-07 18:40:00,30.9,23.9,29.25,ENE,67,11.5,11.5,75,0.00,FEW,,0.00,0.0,WeatherDisplay:10.37,2013-01-08 03:40:00,
2013-01-07 18:45:00,30.8,23.8,29.25,NNE,18,8.1,8.1,75,0.00,FEW,,0.00,0.0,WeatherDisplay:10.37,2013-01-08 03:45:00,
2013-01-07 18:50:00,30.7,23.7,29.25,NE,56,9.2,9.2,75,0.00,FEW,,0.00,0.0,WeatherDisplay:10.37,2013-01-08 03:50:00,
2013-01-07 18:55:00,30.7,24.0,29.25,NE,44,8.1,8.1,76,0.00,FEW,,0.00,0.0,WeatherDisplay:10.37,2013-01-08 03:55:00,
2013-01-07 19:00:00,30.7,24.0,29.25,NE,42,6.9,6.9,76,0.00,FEW,,0.00,0.0,WeatherDisplay:10.37,2013-01-08 04:00:00,
2013-01-07 19:05:00,30.7,24.0,29.26,NE,34,9.2,9.2,76,0.00,CLR,,0.00,0.0,WeatherDisplay:10.37,2013-01-08 04:05:00,
2013-01-07 19:10:00,30.7,24.0,29.25,NNE,26,8.1,8.1,76,0.00,CLR,,0.00,0.0,WeatherDisplay:10.37,2013-01-08 04:10:00,
2013-01-07 19:15:00,30.6,23.9,29.25,ENE,73,8.1,8.1,76,0.00,CLR,,0.00,0.0,WeatherDisplay:10.37,2013-01-08 04:15:00,
2013-01-07 19:20:00,30.6,23.9,29.26,NNE,33,9.2,9.2,76,0.00,CLR,,0.00,0.0,WeatherDisplay:10.37,2013-01-08 04:20:00,
2013-01-07 19:25:00,30.5,23.8,29.26,ENE,77,9.2,9.2,76,0.00,CLR,,0.00,0.0,WeatherDisplay:10.37,2013-01-08 04:25:00,
2013-01-07 19:30:00,30.5,23.8,29.26,ENE,75,5.0,5.0,76,0.00,CLR,,0.00,0.0,WeatherDisplay:10.37,2013-01-08 04:30:00,
2013-01-07 19:35:00,30.4,24.1,29.26,ENE,74,8.1,8.1,77,0.00,CLR,,0.00,0.0,WeatherDisplay:10.37,2013-01-08 04:35:00,
2013-01-07 19:40:00,30.4,24.1,29.27,East,94,6.9,6.9,77,0.00,CLR,,0.00,0.0,WeatherDisplay:10.37,2013-01-08 04:40:00,
2013-01-07 19:45:00,30.4,24.4,29.27,NE,56,6.9,6.9,78,0.00,CLR,,0.00,0.0,WeatherDisplay:10.37,2013-01-08 04:45:00,
2013-01-07 19:50:00,30.3,24.3,29.27,NE,48,7.0,7.0,78,0.00,CLR,,0.00,0.0,WeatherDisplay:10.37,2013-01-08 04:50:00,
2013-01-07 19:55:00,30.2,24.2,29.27,East,101,8.0,8.0,78,0.00,CLR,,0.00,0.0,WeatherDisplay:10.37,2013-01-08 04:55:00,
2013-01-07 20:00:00,30.1,24.1,29.27,ENE,61,8.1,8.1,78,0.00,CLR,,0.00,0.0,WeatherDisplay:10.37,2013-01-08 05:00:00,
2013-01-07 20:05:00,30.0,24.0,29.27,ENE,57,5.8,5.8,78,0.00,CLR,,0.00,0.0,WeatherDisplay:10.37,2013-01-08 05:05:00,
2013-01-07 20:10:00,29.9,23.9,29.28,East,90,4.6,4.6,78,0.00,CLR,,0.00,0.0,WeatherDisplay:10.37,2013-01-08 05:10:00,
2013-01-07 20:15:00,29.8,24.1,29.28,East,79,3.5,3.5,79,0.00,CLR,,0.00,0.0,WeatherDisplay:10.37,2013-01-08 05:15:00,
2013-01-07 20:20:00,29.7,24.0,29.28,NE,49,8.1,8.1,79,0.00,CLR,,0.00,0.0,WeatherDisplay:10.37,2013-01-08 05:20:00,
2013-01-07 20:25:00,29.5,23.8,29.28,ESE,102,5.0,5.0,79,0.00,CLR,,0.00,0.0,WeatherDisplay:10.37,2013-01-08 05:25:00,
2013-01-07 20:30:00,29.4,23.7,29.28,ENE,72,8.1,8.1,79,0.00,CLR,,0.00,0.0,WeatherDisplay:10.37,2013-01-08 05:30:00,
2013-01-07 20:35:00,29.3,23.6,29.28,ENE,65,6.9,6.9,79,0.00,CLR,,0.00,0.0,WeatherDisplay:10.37,2013-01-08 05:35:00,
2013-01-07 20:40:00,29.3,23.6,29.29,ENE,57,7.0,7.0,79,0.00,CLR,,0.00,0.0,WeatherDisplay:10.37,2013-01-08 05:40:00,
2013-01-07 20:45:00,29.2,23.8,29.29,ENE,69,9.2,9.2,80,0.00,CLR,,0.00,0.0,WeatherDisplay:10.37,2013-01-08 05:45:00,
2013-01-07 20:50:00,29.2,23.8,29.29,NE,41,4.6,4.6,80,0.00,CLR,,0.00,0.0,WeatherDisplay:10.37,2013-01-08 05:50:00,
2013-01-07 20:55:00,29.1,23.7,29.29,NE,54,5.8,5.8,80,0.00,CLR,,0.00,0.0,WeatherDisplay:10.37,2013-01-08 05:55:00,
2013-01-07 21:00:00,29.0,23.6,29.30,East,84,5.0,5.0,80,0.00,CLR,,0.00,0.0,WeatherDisplay:10.37,2013-01-08 06:00:00,
2013-01-07 21:05:00,29.0,23.6,29.30,East,87,8.0,8.0,80,0.00,CLR,,0.00,0.0,WeatherDisplay:10.37,2013-01-08 06:05:00,
2013-01-07 21:10:00,29.0,23.6,29.30,ENE,67,7.0,7.0,80,0.00,CLR,,0.00,0.0,WeatherDisplay:10.37,2013-01-08 06:10:00,
2013-01-07 21:15:00,29.0,23.6,29.31,ENE,67,4.6,4.6,80,0.00,CLR,,0.00,0.0,WeatherDisplay:10.37,2013-01-08 06:15:00,
2013-01-07 21:20:00,28.9,23.5,29.31,NE,42,5.8,5.8,80,0.00,CLR,,0.00,0.0,WeatherDisplay:10.37,2013-01-08 06:20:00,
2013-01-07 21:25:00,28.8,23.4,29.31,NE,46,6.9,6.9,80,0.00,CLR,,0.00,0.0,WeatherDisplay:10.37,2013-01-08 06:25:00,
2013-01-07 21:30:00,28.8,23.4,29.31,NE,54,6.9,6.9,80,0.00,CLR,,0.00,0.0,WeatherDisplay:10.37,2013-01-08 06:30:00,
2013-01-07 21:35:00,28.8,23.4,29.32,East,81,5.8,5.8,80,0.00,CLR,,0.00,0.0,WeatherDisplay:10.37,2013-01-08 06:35:00,
2013-01-07 21:40:00,28.8,23.4,29.32,ENE,58,4.6,4.6,80,0.00,CLR,,0.00,0.0,WeatherDisplay:10.37,2013-01-08 06:40:00,
2013-01-07 21:45:00,28.8,23.4,29.32,NE,49,7.0,7.0,80,0.00,CLR,,0.00,0.0,WeatherDisplay:10.37,2013-01-08 06:45:00,
2013-01-07 21:50:00,28.8,23.4,29.32,NNE,33,4.6,4.6,80,0.00,CLR,,0.00,0.0,WeatherDisplay:10.37,2013-01-08 06:50:00,
2013-01-07 21:55:00,28.9,23.5,29.32,East,80,4.6,4.6,80,0.00,CLR,,0.00,0.0,WeatherDisplay:10.37,2013-01-08 06:55:00,
2013-01-07 22:00:00,28.9,23.2,29.32,NE,36,4.6,4.6,79,0.00,CLR,,0.00,0.0,WeatherDisplay:10.37,2013-01-08 07:00:00,
2013-01-07 22:05:00,29.0,23.3,29.32,NE,49,4.6,4.6,79,0.00,BKN,,0.00,0.0,WeatherDisplay:10.37,2013-01-08 07:05:00,
2013-01-07 22:10:00,29.1,23.4,29.32,ENE,66,3.5,3.5,79,0.00,BKN,,0.00,0.0,WeatherDisplay:10.37,2013-01-08 07:10:00,
2013-01-07 22:15:00,29.2,23.5,29.33,NNE,33,5.8,5.8,79,0.00,BKN,,0.00,0.0,WeatherDisplay:10.37,2013-01-08 07:15:00,
2013-01-07 22:20:00,29.2,23.5,29.33,ENE,69,2.3,2.3,79,0.00,BKN,,0.00,0.0,WeatherDisplay:10.37,2013-01-08 07:20:00,
2013-01-07 22:25:00,29.3,23.6,29.33,ENE,69,2.3,2.3,79,0.00,BKN,,0.00,0.0,WeatherDisplay:10.37,2013-01-08 07:25:00,
2013-01-07 22:30:00,29.3,23.6,29.34,ENE,69,1.1,1.1,79,0.00,BKN,,0.00,0.0,WeatherDisplay:10.37,2013-01-08 07:30:00,
2013-01-07 22:35:00,29.2,23.5,29.34,ENE,69,1.1,1.1,79,0.00,BKN,,0.00,0.0,WeatherDisplay:10.37,2013-01-08 07:35:00,
2013-01-07 22:40:00,29.0,23.3,29.33,ENE,59,4.0,4.0,79,0.00,BKN,,0.00,0.0,WeatherDisplay:10.37,2013-01-08 07:40:00,
2013-01-07 22:45:00,28.9,23.5,29.34,East,88,5.8,5.8,80,0.00,BKN,,0.00,0.0,WeatherDisplay:10.37,2013-01-08 07:45:00,
2013-01-07 22:50:00,28.8,23.4,29.34,East,90,2.3,2.3,80,0.00,BKN,,0.00,0.0,WeatherDisplay:10.37,2013-01-08 07:50:00,
2013-01-07 22:55:00,28.7,23.0,29.34,ENE,74,3.5,3.5,79,0.00,BKN,,0.00,0.0,WeatherDisplay:10.37,2013-01-08 07:55:00,
2013-01-07 23:00:00,28.6,22.9,29.35,East,82,6.9,6.9,79,0.00,BKN,,0.00,0.0,WeatherDisplay:10.37,2013-01-08 08:00:00,
2013-01-07 23:05:00,28.5,22.8,29.35,ENE,67,2.3,2.3,79,0.00,FEW,,0.00,0.0,WeatherDisplay:10.37,2013-01-08 08:05:00,
2013-01-07 23:10:00,28.4,23.0,29.35,ENE,70,3.5,3.5,80,0.00,FEW,,0.00,0.0,WeatherDisplay:10.37,2013-01-08 08:10:00,
2013-01-07 23:15:00,28.4,22.7,29.35,ENE,69,4.6,4.6,79,0.00,FEW,,0.00,0.0,WeatherDisplay:10.37,2013-01-08 08:15:00,
2013-01-07 23:20:00,28.5,22.8,29.35,NNE,28,4.6,4.6,79,0.00,FEW,,0.00,0.0,WeatherDisplay:10.37,2013-01-08 08:20:00,
2013-01-07 23:25:00,28.5,22.8,29.36,NE,53,4.0,4.0,79,0.00,FEW,,0.00,0.0,WeatherDisplay:10.37,2013-01-08 08:25:00,
2013-01-07 23:30:00,28.7,23.0,29.36,NE,47,6.0,6.0,79,0.00,FEW,,0.00,0.0,WeatherDisplay:10.37,2013-01-08 08:30:00,
2013-01-07 23:35:00,28.7,23.0,29.36,NE,39,4.6,4.6,79,0.00,FEW,,0.00,0.0,WeatherDisplay:10.37,2013-01-08 08:35:00,
2013-01-07 23:40:00,28.7,23.0,29.36,East,80,3.0,3.0,79,0.00,FEW,,0.00,0.0,WeatherDisplay:10.37,2013-01-08 08:40:00,
2013-01-07 23:45:00,28.7,23.0,29.37,NE,42,3.5,3.5,79,0.00,FEW,,0.00,0.0,WeatherDisplay:10.37,2013-01-08 08:45:00,
2013-01-07 23:50:00,28.6,22.9,29.37,NE,55,3.5,3.5,79,0.00,FEW,,0.00,0.0,WeatherDisplay:10.37,2013-01-08 08:50:00,
2013-01-07 23:55:00,28.6,22.9,29.37,NNE,28,6.0,6.0,79,0.00,FEW,,0.00,0.0,WeatherDisplay:10.37,2013-01-08 08:55:00,